Time;durP1;ratioP1;P1;durP2;ratioP2;P2;SDS_P1;SDS_P2;PMS_P1;PMS_P2;Temp;Humidity;BMP_temperature;BMP_pressure;BME280_temperature;BME280_humidity;BME280_pressure;Samples;Min_cycle;Max_cycle;Signal;HPM_P1;HPM_P2
2022/12/06 00:01:13;;;;;;;2.95;2.75;;;3.30;99.90;;;;;;509274;233;27910;-64
2022/12/06 00:03:14;;;;;;;3.47;3.17;;;3.30;99.90;;;;;;509260;233;27431;-65
2022/12/06 00:05:15;;;;;;;3.50;3.20;;;3.30;99.90;;;;;;509257;233;27391;-66
2022/12/06 00:07:17;;;;;;;3.42;3.12;;;3.30;99.90;;;;;;509234;233;27396;-64
2022/12/06 00:09:18;;;;;;;3.65;3.35;;;3.30;99.90;;;;;;509247;233;27360;-65
2022/12/06 00:11:19;;;;;;;6.97;3.72;;;3.30;99.90;;;;;;509244;233;27372;-64
2022/12/06 00:13:20;;;;;;;3.17;2.97;;;3.30;99.90;;;;;;509251;233;27416;-64
2022/12/06 00:15:22;;;;;;;4.12;3.60;;;3.30;99.90;;;;;;509271;233;27439;-65
2022/12/06 00:17:23;;;;;;;4.55;3.80;;;3.30;99.90;;;;;;509262;233;27334;-64
2022/12/06 00:19:24;;;;;;;4.07;3.67;;;3.30;99.90;;;;;;509245;233;27455;-65
2022/12/06 00:21:27;;;;;;;3.85;3.40;;;3.30;99.90;;;;;;509257;233;27599;-67
2022/12/06 00:23:27;;;;;;;4.40;3.70;;;3.30;99.90;;;;;;509195;233;27785;-64
2022/12/06 00:25:28;;;;;;;4.35;3.60;;;3.30;99.90;;;;;;509278;233;27885;-64
2022/12/06 00:27:29;;;;;;;3.90;3.60;;;3.30;99.90;;;;;;509266;233;27815;-65
2022/12/06 00:29:31;;;;;;;3.50;3.20;;;3.30;99.90;;;;;;509223;233;27377;-65
2022/12/06 00:31:33;;;;;;;3.62;3.33;;;3.30;99.90;;;;;;509314;233;27361;-67
2022/12/06 00:33:33;;;;;;;4.45;3.90;;;3.30;99.90;;;;;;509219;233;27446;-64
2022/12/06 00:35:34;;;;;;;4.03;3.62;;;3.30;99.90;;;;;;509247;233;27717;-65
2022/12/06 00:37:36;;;;;;;3.70;3.25;;;3.30;99.90;;;;;;509261;233;27393;-64
2022/12/06 00:39:37;;;;;;;3.25;3.00;;;3.30;99.90;;;;;;509244;233;27353;-65
2022/12/06 00:41:38;;;;;;;3.70;3.40;;;3.30;99.90;;;;;;509285;233;27389;-67
2022/12/06 00:43:39;;;;;;;3.53;3.22;;;3.30;99.90;;;;;;509284;233;27337;-64
2022/12/06 00:45:40;;;;;;;4.07;3.50;;;3.20;99.90;;;;;;509271;233;27407;-64
2022/12/06 00:47:42;;;;;;;3.85;3.45;;;3.20;99.90;;;;;;509285;233;27337;-64
2022/12/06 00:49:43;;;;;;;3.30;3.03;;;3.20;99.90;;;;;;509273;233;27435;-64
2022/12/06 00:51:44;;;;;;;3.42;3.17;;;3.20;99.90;;;;;;509303;233;28101;-67
2022/12/06 00:53:45;;;;;;;3.90;3.28;;;3.20;99.90;;;;;;509288;233;27786;-64
2022/12/06 00:55:47;;;;;;;3.53;3.20;;;3.20;99.90;;;;;;509242;233;27888;-64
2022/12/06 00:57:48;;;;;;;3.65;3.35;;;3.20;99.90;;;;;;509275;233;27881;-64
2022/12/06 00:59:49;;;;;;;5.10;4.05;;;3.20;99.90;;;;;;509293;233;27412;-65
2022/12/06 01:01:50;;;;;;;4.30;3.80;;;3.20;99.90;;;;;;509315;233;27388;-67
2022/12/06 01:03:52;;;;;;;4.03;3.50;;;3.20;99.90;;;;;;509323;233;27419;-64
2022/12/06 01:05:53;;;;;;;3.60;3.30;;;3.20;99.90;;;;;;509285;233;27443;-64
2022/12/06 01:07:54;;;;;;;4.68;4.18;;;3.20;99.90;;;;;;509282;233;27392;-64
2022/12/06 01:09:55;;;;;;;4.25;3.87;;;3.20;99.90;;;;;;509318;233;27345;-64
2022/12/06 01:11:57;;;;;;;4.22;3.83;;;3.20;99.90;;;;;;509276;233;27369;-65
2022/12/06 01:13:58;;;;;;;4.15;3.78;;;3.20;99.90;;;;;;509282;233;27437;-64
2022/12/06 01:15:59;;;;;;;4.20;3.75;;;3.20;99.90;;;;;;509276;233;27463;-65
2022/12/06 01:18:01;;;;;;;3.55;3.25;;;3.20;99.90;;;;;;509293;233;27391;-64
2022/12/06 01:20:02;;;;;;;3.85;3.55;;;3.20;99.90;;;;;;509262;233;27417;-64
2022/12/06 01:22:03;;;;;;;4.12;3.60;;;3.20;99.90;;;;;;509274;233;27367;-65
2022/12/06 01:24:04;;;;;;;3.67;3.30;;;3.20;99.90;;;;;;509266;233;27523;-64
2022/12/06 01:26:05;;;;;;;3.70;3.37;;;3.20;99.90;;;;;;509240;233;27833;-65
2022/12/06 01:28:07;;;;;;;3.80;3.50;;;3.20;99.90;;;;;;509257;233;27920;-64
2022/12/06 01:30:08;;;;;;;4.28;3.87;;;3.10;99.90;;;;;;509272;233;27866;-63
2022/12/06 01:32:09;;;;;;;4.57;4.15;;;3.00;99.90;;;;;;509271;233;27417;-65
2022/12/06 01:34:10;;;;;;;4.97;4.35;;;3.00;99.90;;;;;;509277;233;27321;-64
2022/12/06 01:36:12;;;;;;;5.37;4.70;;;3.00;99.90;;;;;;509261;233;27443;-64
2022/12/06 01:38:13;;;;;;;4.18;3.50;;;2.90;99.90;;;;;;509226;233;27356;-64
2022/12/06 01:40:14;;;;;;;5.43;3.70;;;2.90;99.90;;;;;;509267;233;27416;-64
2022/12/06 01:42:15;;;;;;;4.72;4.15;;;3.00;99.90;;;;;;509277;233;27389;-66
2022/12/06 01:44:17;;;;;;;6.00;3.90;;;3.00;99.90;;;;;;509273;233;27369;-64
2022/12/06 01:46:18;;;;;;;4.18;3.78;;;2.90;99.90;;;;;;509244;233;27347;-64
2022/12/06 01:48:19;;;;;;;3.80;3.50;;;2.90;99.90;;;;;;509252;233;27330;-64
2022/12/06 01:50:20;;;;;;;4.00;3.60;;;2.90;99.90;;;;;;509286;233;27342;-65
2022/12/06 01:52:22;;;;;;;4.10;3.70;;;2.90;99.90;;;;;;509280;233;27867;-65
2022/12/06 01:54:23;;;;;;;4.72;3.78;;;2.90;99.90;;;;;;509279;233;27803;-64
2022/12/06 01:56:24;;;;;;;3.75;3.45;;;2.90;99.90;;;;;;509256;233;27947;-64
2022/12/06 01:58:26;;;;;;;3.62;3.30;;;2.90;99.90;;;;;;509273;233;27993;-64
2022/12/06 02:00:27;;;;;;;4.10;3.42;;;2.90;99.90;;;;;;509287;233;27397;-64
2022/12/06 02:02:28;;;;;;;3.17;2.87;;;2.90;99.90;;;;;;509278;233;27420;-65
2022/12/06 02:04:29;;;;;;;3.10;2.83;;;2.90;99.90;;;;;;509275;233;27404;-66
2022/12/06 02:06:31;;;;;;;3.85;3.40;;;2.90;99.90;;;;;;509268;233;27452;-65
2022/12/06 02:08:32;;;;;;;3.05;2.85;;;2.90;99.90;;;;;;509241;233;27353;-64
2022/12/06 02:10:33;;;;;;;3.00;2.65;;;2.90;99.90;;;;;;509270;233;27353;-64
2022/12/06 02:12:34;;;;;;;3.08;2.80;;;2.90;99.90;;;;;;509263;233;27692;-66
2022/12/06 02:14:36;;;;;;;2.95;2.75;;;2.90;99.90;;;;;;509272;233;27333;-64
2022/12/06 02:16:37;;;;;;;3.00;2.80;;;2.90;99.90;;;;;;509247;233;27372;-65
2022/12/06 02:18:38;;;;;;;4.07;3.20;;;2.90;99.90;;;;;;509276;233;27729;-67
2022/12/06 02:20:39;;;;;;;3.25;2.95;;;2.90;99.90;;;;;;509277;233;27790;-64
2022/12/06 02:22:41;;;;;;;4.43;3.45;;;2.80;99.90;;;;;;509260;233;27943;-65
2022/12/06 02:24:42;;;;;;;3.50;3.00;;;2.70;99.90;;;;;;509250;233;27793;-64
2022/12/06 02:26:43;;;;;;;3.30;3.00;;;2.70;99.90;;;;;;509252;233;27962;-64
2022/12/06 02:28:44;;;;;;;3.37;3.08;;;2.70;99.90;;;;;;509291;233;27447;-67
2022/12/06 02:30:46;;;;;;;2.80;2.60;;;2.70;99.90;;;;;;509285;233;27405;-64
2022/12/06 02:32:47;;;;;;;3.67;2.80;;;2.70;99.90;;;;;;509303;233;27372;-64
2022/12/06 02:34:48;;;;;;;3.03;2.83;;;2.70;99.90;;;;;;509290;233;27416;-64
2022/12/06 02:36:49;;;;;;;2.80;2.60;;;2.70;99.90;;;;;;509274;233;27364;-65
2022/12/06 02:38:51;;;;;;;3.22;3.03;;;2.70;99.90;;;;;;509297;233;27412;-67
2022/12/06 02:40:52;;;;;;;3.22;2.97;;;2.70;99.90;;;;;;509283;233;27463;-66
2022/12/06 02:42:53;;;;;;;4.25;2.90;;;2.80;99.90;;;;;;509260;233;27479;-66
2022/12/06 02:44:54;;;;;;;3.10;2.80;;;2.80;99.90;;;;;;509244;233;27843;-65
2022/12/06 02:46:56;;;;;;;3.40;3.10;;;2.80;99.90;;;;;;509241;233;27467;-65
2022/12/06 02:48:57;;;;;;;2.70;2.50;;;2.80;99.90;;;;;;509265;233;27904;-67
2022/12/06 02:50:58;;;;;;;2.47;2.33;;;2.80;99.90;;;;;;509271;233;27840;-64
2022/12/06 02:52:59;;;;;;;2.70;2.50;;;2.80;99.90;;;;;;509252;233;29030;-64
2022/12/06 02:55:01;;;;;;;2.80;2.60;;;2.80;99.90;;;;;;509261;233;27778;-64
2022/12/06 02:57:02;;;;;;;3.15;2.53;;;2.80;99.90;;;;;;509092;233;27356;-64
2022/12/06 02:59:04;;;;;;;2.92;2.72;;;2.70;99.90;;;;;;509271;233;27341;-67
2022/12/06 03:01:04;;;;;;;2.75;2.55;;;2.70;99.90;;;;;;509216;233;27333;-64
2022/12/06 03:03:06;;;;;;;2.92;2.72;;;2.70;99.90;;;;;;509234;233;27486;-65
2022/12/06 03:05:07;;;;;;;2.70;2.50;;;2.80;99.90;;;;;;509249;233;27405;-66
2022/12/06 03:07:08;;;;;;;2.80;2.60;;;2.80;99.90;;;;;;509258;233;27373;-64
2022/12/06 03:09:09;;;;;;;3.12;2.60;;;2.80;99.90;;;;;;509301;233;27475;-67
2022/12/06 03:11:11;;;;;;;2.45;2.25;;;2.80;99.90;;;;;;509289;233;27341;-64
2022/12/06 03:13:13;;;;;;;2.87;2.67;;;2.80;99.90;;;;;;509242;233;27426;-65
2022/12/06 03:15:13;;;;;;;2.60;2.40;;;2.80;99.90;;;;;;509187;233;27329;-64
2022/12/06 03:17:14;;;;;;;2.30;2.20;;;2.80;99.90;;;;;;509230;233;27806;-64
2022/12/06 03:19:16;;;;;;;2.65;2.45;;;2.80;99.90;;;;;;509286;233;27871;-67
2022/12/06 03:21:17;;;;;;;2.30;2.20;;;2.80;99.90;;;;;;509270;233;27808;-64
2022/12/06 03:23:18;;;;;;;2.72;2.53;;;2.80;99.90;;;;;;509264;233;29051;-65
2022/12/06 03:25:19;;;;;;;3.00;2.75;;;2.80;99.90;;;;;;509285;233;27318;-64
2022/12/06 03:27:21;;;;;;;2.30;2.10;;;2.80;99.90;;;;;;509265;233;27439;-64
2022/12/06 03:29:22;;;;;;;2.50;2.30;;;2.80;99.90;;;;;;509298;233;27447;-66
2022/12/06 03:31:23;;;;;;;2.80;2.60;;;2.80;99.90;;;;;;509271;233;27337;-64
2022/12/06 03:33:25;;;;;;;2.72;2.53;;;2.80;99.90;;;;;;509260;233;27374;-65
2022/12/06 03:35:26;;;;;;;2.60;2.40;;;2.80;99.90;;;;;;509169;233;27507;-64
2022/12/06 03:37:27;;;;;;;2.90;2.20;;;2.80;99.90;;;;;;509258;233;27451;-64
2022/12/06 03:39:30;;;;;;;2.60;2.40;;;2.70;99.90;;;;;;509263;233;27459;-67
2022/12/06 03:41:31;;;;;;;2.95;2.75;;;2.70;99.90;;;;;;509218;233;27374;-65
2022/12/06 03:43:32;;;;;;;3.25;3.05;;;2.80;99.90;;;;;;509274;233;27472;-67
2022/12/06 03:45:33;;;;;;;2.40;2.30;;;2.80;99.90;;;;;;509249;233;27408;-64
2022/12/06 03:47:35;;;;;;;2.80;2.60;;;2.80;99.90;;;;;;509260;233;27844;-66
2022/12/06 03:49:36;;;;;;;3.12;2.75;;;2.80;99.90;;;;;;509250;233;27929;-64
2022/12/06 03:51:37;;;;;;;3.00;2.80;;;2.80;99.90;;;;;;509238;233;28929;-64
2022/12/06 03:53:38;;;;;;;2.53;2.33;;;2.80;99.90;;;;;;509256;233;28057;-67
2022/12/06 03:55:41;;;;;;;3.60;2.80;;;2.80;99.90;;;;;;509270;233;27392;-64
2022/12/06 03:57:41;;;;;;;2.92;2.70;;;2.70;99.90;;;;;;509192;233;27496;-65
2022/12/06 03:59:42;;;;;;;2.67;2.47;;;2.80;99.90;;;;;;509244;233;27337;-64
2022/12/06 04:01:43;;;;;;;2.83;2.53;;;2.70;99.90;;;;;;509244;233;27353;-64
2022/12/06 04:03:45;;;;;;;2.90;2.70;;;2.70;99.90;;;;;;509245;233;27385;-64
2022/12/06 04:05:46;;;;;;;2.83;2.62;;;2.70;99.90;;;;;;509263;233;27372;-64
2022/12/06 04:07:47;;;;;;;3.03;2.83;;;2.70;99.90;;;;;;509236;233;27404;-65
2022/12/06 04:09:52;;;;;;;3.67;3.37;;;2.70;99.90;;;;;;509276;233;27352;-64
2022/12/06 04:11:53;;;;;;;3.15;2.85;;;2.70;99.90;;;;;;509235;233;28527;-64
2022/12/06 04:13:54;;;;;;;3.03;2.83;;;2.70;99.90;;;;;;509207;233;27864;-64
2022/12/06 04:15:55;;;;;;;3.30;2.70;;;2.80;99.90;;;;;;509254;233;27856;-66
2022/12/06 04:18:17;;;;;;;2.90;2.70;;;2.80;99.90;;;;;;509261;233;27932;-64
2022/12/06 04:20:16;;;;;;;3.92;3.53;;;2.70;99.90;;;;;;509068;233;27447;-64
2022/12/06 04:24:37;;;;;;;3.55;3.20;;;2.70;99.90;;;;;;509207;233;28577;-66
2022/12/06 04:26:38;;;;;;;3.55;3.00;;;2.70;99.90;;;;;;509240;233;27869;-64
2022/12/06 04:40:17;;;;;;;3.92;3.37;;;2.70;99.90;;;;;;509252;233;27330;-65
2022/12/06 04:44:38;;;;;;;3.58;3.28;;;2.60;99.90;;;;;;509247;233;27890;-65
2022/12/06 04:46:39;;;;;;;3.85;3.10;;;2.60;99.90;;;;;;509229;233;27805;-65
2022/12/06 04:48:41;;;;;;;4.28;3.87;;;2.60;99.90;;;;;;509229;233;27326;-65
2022/12/06 04:50:42;;;;;;;3.72;3.42;;;2.60;99.90;;;;;;509243;233;27426;-64
2022/12/06 04:52:43;;;;;;;3.55;3.25;;;2.60;99.90;;;;;;509254;233;27349;-65
2022/12/06 04:54:45;;;;;;;4.55;3.80;;;2.60;99.90;;;;;;509210;233;27440;-67
2022/12/06 04:56:46;;;;;;;3.97;3.62;;;2.60;99.90;;;;;;509145;233;27364;-65
2022/12/06 04:58:47;;;;;;;5.30;4.28;;;2.60;99.90;;;;;;509234;233;27548;-65
2022/12/06 05:00:48;;;;;;;4.57;4.18;;;2.60;99.90;;;;;;509190;233;27350;-64
2022/12/06 05:02:49;;;;;;;5.82;3.65;;;2.50;99.90;;;;;;509265;233;27344;-64
2022/12/06 05:04:51;;;;;;;4.55;4.15;;;2.50;99.90;;;;;;509140;233;27361;-66
2022/12/06 05:06:52;;;;;;;4.78;4.05;;;2.60;99.90;;;;;;509050;233;27410;-64
2022/12/06 05:08:53;;;;;;;3.97;3.58;;;2.60;99.90;;;;;;509032;233;27860;-65
2022/12/06 05:10:54;;;;;;;4.18;3.78;;;2.60;99.90;;;;;;509042;233;28073;-65
2022/12/06 05:12:56;;;;;;;4.03;3.70;;;2.60;99.90;;;;;;509082;233;27789;-65
2022/12/06 05:14:57;;;;;;;4.25;3.85;;;2.60;99.90;;;;;;509154;233;27945;-65
2022/12/06 05:16:58;;;;;;;5.43;4.50;;;2.60;99.90;;;;;;509247;233;27396;-64
2022/12/06 05:18:59;;;;;;;4.60;4.18;;;2.50;99.90;;;;;;509249;233;27353;-64
2022/12/06 05:21:01;;;;;;;4.22;3.85;;;2.50;99.90;;;;;;509274;233;27352;-67
2022/12/06 05:23:02;;;;;;;3.80;3.50;;;2.50;99.90;;;;;;509285;233;27345;-65
2022/12/06 05:25:03;;;;;;;6.20;5.18;;;2.50;99.90;;;;;;509260;233;27451;-65
2022/12/06 05:27:04;;;;;;;4.00;3.60;;;2.50;99.90;;;;;;509249;233;27344;-64
2022/12/06 05:29:06;;;;;;;4.30;3.90;;;2.50;99.90;;;;;;509265;233;27396;-64
2022/12/06 05:31:07;;;;;;;4.47;3.80;;;2.50;99.90;;;;;;509279;233;27502;-68
2022/12/06 05:33:08;;;;;;;4.25;3.50;;;2.50;99.90;;;;;;509269;233;27428;-65
2022/12/06 05:35:09;;;;;;;5.05;4.05;;;2.50;99.90;;;;;;509281;233;27401;-65
2022/12/06 05:37:11;;;;;;;6.18;3.95;;;2.50;99.90;;;;;;509267;233;27813;-65
2022/12/06 05:39:12;;;;;;;4.22;3.83;;;2.50;99.90;;;;;;509241;233;27903;-65
2022/12/06 05:41:13;;;;;;;4.72;3.95;;;2.50;99.90;;;;;;509176;233;27855;-68
2022/12/06 05:43:14;;;;;;;4.87;4.37;;;2.40;99.90;;;;;;509275;233;27825;-65
2022/12/06 05:45:16;;;;;;;5.10;4.60;;;2.40;99.90;;;;;;509258;233;27474;-65
2022/12/06 05:47:17;;;;;;;5.00;4.43;;;2.40;99.90;;;;;;509254;233;27309;-64
2022/12/06 05:49:18;;;;;;;6.32;4.47;;;2.40;99.90;;;;;;509260;233;27340;-65
2022/12/06 05:51:19;;;;;;;5.28;4.20;;;2.40;99.90;;;;;;509292;233;27444;-67
2022/12/06 05:53:21;;;;;;;4.47;4.07;;;2.50;99.90;;;;;;509282;233;27326;-64
2022/12/06 05:55:22;;;;;;;4.93;4.35;;;2.40;99.90;;;;;;509262;233;27380;-64
2022/12/06 05:57:23;;;;;;;5.28;4.45;;;2.40;99.90;;;;;;509253;233;27353;-64
2022/12/06 05:59:24;;;;;;;4.65;4.25;;;2.50;99.90;;;;;;509274;233;27334;-65
2022/12/06 06:01:26;;;;;;;4.53;4.12;;;2.40;99.90;;;;;;509290;233;27373;-67
2022/12/06 06:03:27;;;;;;;4.60;4.20;;;2.40;99.90;;;;;;509249;233;27345;-65
2022/12/06 06:05:29;;;;;;;4.50;4.10;;;2.50;99.90;;;;;;509232;233;27857;-65
2022/12/06 06:07:29;;;;;;;5.40;4.10;;;2.50;99.90;;;;;;509249;233;28554;-64
2022/12/06 06:09:31;;;;;;;5.00;4.50;;;2.50;99.90;;;;;;509296;233;28022;-65
2022/12/06 06:11:32;;;;;;;4.97;4.47;;;2.50;99.90;;;;;;509291;233;29053;-67
2022/12/06 06:13:33;;;;;;;4.70;4.30;;;2.40;99.90;;;;;;509297;233;27525;-65
2022/12/06 06:15:34;;;;;;;4.90;4.32;;;2.50;99.90;;;;;;509270;233;27349;-64
2022/12/06 06:17:36;;;;;;;6.47;4.30;;;2.50;99.90;;;;;;509284;233;27345;-65
2022/12/06 06:19:37;;;;;;;4.50;4.10;;;2.50;99.90;;;;;;509272;233;27400;-64
2022/12/06 06:21:38;;;;;;;5.40;4.07;;;2.50;99.90;;;;;;509286;233;27444;-66
2022/12/06 06:23:39;;;;;;;7.25;4.40;;;2.50;99.90;;;;;;509268;233;27348;-65
2022/12/06 06:25:41;;;;;;;6.40;4.57;;;2.50;99.90;;;;;;509206;233;27368;-64
2022/12/06 06:27:42;;;;;;;4.57;4.15;;;2.50;99.90;;;;;;509286;233;27401;-67
2022/12/06 06:29:43;;;;;;;6.82;4.90;;;2.40;99.90;;;;;;509280;233;27348;-64
2022/12/06 06:31:45;;;;;;;4.87;4.35;;;2.40;99.90;;;;;;509261;233;27385;-64
2022/12/06 06:33:46;;;;;;;5.18;4.50;;;2.40;99.90;;;;;;509220;233;27915;-65
2022/12/06 06:35:47;;;;;;;5.80;4.90;;;2.40;99.90;;;;;;509254;233;27810;-65
2022/12/06 06:37:48;;;;;;;5.47;4.75;;;2.40;99.90;;;;;;509289;233;27931;-67
2022/12/06 06:39:49;;;;;;;7.40;5.22;;;2.40;99.90;;;;;;509297;233;27879;-65
2022/12/06 06:41:51;;;;;;;5.40;4.90;;;2.40;99.90;;;;;;509256;233;27938;-65
2022/12/06 06:43:52;;;;;;;5.03;4.45;;;2.40;99.90;;;;;;509256;233;27432;-64
2022/12/06 06:45:53;;;;;;;6.80;5.12;;;2.30;99.90;;;;;;509215;233;27400;-65
2022/12/06 06:47:54;;;;;;;5.78;5.18;;;2.30;99.90;;;;;;509278;233;27470;-68
2022/12/06 06:49:56;;;;;;;6.15;5.55;;;2.30;99.90;;;;;;509247;233;27412;-64
2022/12/06 06:51:57;;;;;;;6.00;5.20;;;2.30;99.90;;;;;;509267;233;27384;-65
2022/12/06 06:53:58;;;;;;;7.55;5.05;;;2.30;99.90;;;;;;509253;233;27481;-64
2022/12/06 06:55:59;;;;;;;8.38;5.72;;;2.30;99.90;;;;;;509229;233;27361;-64
2022/12/06 06:58:02;;;;;;;6.28;5.43;;;2.30;99.90;;;;;;509270;233;27400;-67
2022/12/06 07:00:03;;;;;;;5.25;4.53;;;2.30;99.90;;;;;;509259;233;27464;-65
2022/12/06 07:02:04;;;;;;;6.43;5.32;;;2.30;99.90;;;;;;509242;233;27325;-66
2022/12/06 07:04:05;;;;;;;6.90;5.55;;;2.30;99.90;;;;;;509236;233;27439;-65
2022/12/06 07:06:07;;;;;;;7.03;5.35;;;2.30;99.90;;;;;;509255;233;28324;-68
2022/12/06 07:08:08;;;;;;;6.10;4.97;;;2.30;99.90;;;;;;509270;233;27851;-65
2022/12/06 07:10:09;;;;;;;8.57;5.85;;;2.30;99.90;;;;;;509266;233;27837;-66
2022/12/06 07:12:10;;;;;;;6.82;5.70;;;2.30;99.90;;;;;;509229;233;27790;-65
2022/12/06 07:14:12;;;;;;;7.47;6.47;;;2.30;99.90;;;;;;509219;233;27344;-64
2022/12/06 07:16:13;;;;;;;6.30;5.15;;;2.30;99.90;;;;;;509274;233;27353;-67
2022/12/06 07:18:15;;;;;;;7.28;5.45;;;2.40;99.90;;;;;;509263;233;27341;-65
2022/12/06 07:20:15;;;;;;;8.45;5.62;;;2.30;99.90;;;;;;509177;233;27408;-66
2022/12/06 07:22:17;;;;;;;7.18;5.93;;;2.30;99.90;;;;;;509259;233;27449;-64
2022/12/06 07:24:18;;;;;;;6.45;5.28;;;2.30;99.90;;;;;;509238;233;27464;-64
2022/12/06 07:26:19;;;;;;;7.12;5.43;;;2.30;99.90;;;;;;509257;233;27450;-67
2022/12/06 07:28:20;;;;;;;7.95;5.70;;;2.30;99.90;;;;;;509257;233;27341;-64
2022/12/06 07:30:22;;;;;;;9.50;6.70;;;2.30;99.90;;;;;;509190;233;27447;-65
2022/12/06 07:32:23;;;;;;;8.05;6.10;;;2.30;99.90;;;;;;509231;233;27349;-64
2022/12/06 07:34:24;;;;;;;6.45;5.70;;;2.30;99.90;;;;;;509235;233;27861;-65
2022/12/06 07:36:26;;;;;;;7.30;5.97;;;2.30;99.90;;;;;;509254;233;28009;-68
2022/12/06 07:38:27;;;;;;;7.30;6.07;;;2.30;99.90;;;;;;509246;233;27946;-65
2022/12/06 07:40:28;;;;;;;7.40;5.93;;;2.30;99.90;;;;;;509266;233;27923;-67
2022/12/06 07:45:01;;;;;;;6.53;5.80;;;2.30;99.90;;;;;;509234;233;27377;-64
2022/12/06 07:47:02;;;;;;;8.15;6.12;;;2.30;99.90;;;;;;509243;233;27443;-67
2022/12/06 07:49:03;;;;;;;6.50;5.60;;;2.30;99.90;;;;;;509250;233;27424;-64
2022/12/06 07:51:05;;;;;;;8.38;6.78;;;2.30;99.90;;;;;;509255;233;27381;-65
2022/12/06 07:53:06;;;;;;;7.60;5.97;;;2.30;99.90;;;;;;509275;233;28574;-64
2022/12/06 07:55:07;;;;;;;9.32;6.40;;;2.30;99.90;;;;;;509261;233;27356;-65
2022/12/06 07:57:08;;;;;;;8.23;6.20;;;2.40;99.90;;;;;;509279;233;27499;-67
2022/12/06 07:59:10;;;;;;;8.35;6.68;;;2.40;99.90;;;;;;509269;233;27396;-64
2022/12/06 08:01:11;;;;;;;7.25;5.90;;;2.30;99.90;;;;;;509256;233;27377;-65
2022/12/06 08:03:12;;;;;;;7.72;6.15;;;2.30;99.90;;;;;;509250;233;27413;-64
2022/12/06 08:05:13;;;;;;;7.55;5.90;;;2.30;99.90;;;;;;509277;233;27431;-64
2022/12/06 08:07:15;;;;;;;6.43;5.72;;;2.40;99.90;;;;;;509285;233;27466;-67
2022/12/06 08:09:16;;;;;;;7.35;5.78;;;2.40;99.90;;;;;;509274;233;27424;-64
2022/12/06 08:11:17;;;;;;;8.13;6.07;;;2.40;99.90;;;;;;509271;233;27373;-64
2022/12/06 08:13:18;;;;;;;7.20;5.72;;;2.40;99.90;;;;;;509237;233;27333;-65
2022/12/06 08:15:20;;;;;;;8.20;5.68;;;2.40;99.90;;;;;;509278;233;27808;-65
2022/12/06 08:17:21;;;;;;;8.52;6.05;;;2.40;99.90;;;;;;509258;233;27873;-67
2022/12/06 08:19:22;;;;;;;6.70;5.50;;;2.40;99.90;;;;;;509244;233;27866;-65
2022/12/06 08:21:25;;;;;;;6.80;6.03;;;2.40;99.90;;;;;;509235;233;27873;-65
2022/12/06 08:23:25;;;;;;;7.05;5.70;;;2.50;99.90;;;;;;509110;233;27408;-65
2022/12/06 08:25:26;;;;;;;8.10;5.95;;;2.50;99.90;;;;;;509257;233;27353;-65
2022/12/06 08:27:27;;;;;;;9.15;6.90;;;2.60;99.90;;;;;;509254;233;27393;-67
2022/12/06 08:29:28;;;;;;;6.53;5.80;;;2.60;99.90;;;;;;509262;233;27325;-65
2022/12/06 08:31:30;;;;;;;8.77;6.00;;;2.70;99.90;;;;;;509231;233;27443;-65
2022/12/06 08:33:31;;;;;;;6.12;4.90;;;2.70;99.90;;;;;;509219;233;27338;-64
2022/12/06 08:35:32;;;;;;;6.00;5.22;;;2.70;99.90;;;;;;509241;233;27349;-64
2022/12/06 08:37:33;;;;;;;7.40;5.90;;;2.70;99.90;;;;;;509258;233;27475;-67
2022/12/06 08:39:35;;;;;;;6.90;5.28;;;2.70;99.90;;;;;;509272;233;27341;-64
2022/12/06 08:41:54;;;;;;;8.10;5.75;;;2.70;99.90;;;;;;509234;233;27762;-65
2022/12/06 08:43:55;;;;;;;8.15;5.40;;;2.80;99.90;;;;;;509243;233;27385;-64
2022/12/06 08:45:56;;;;;;;7.90;6.18;;;2.80;99.90;;;;;;509255;233;27365;-64
2022/12/06 08:47:58;;;;;;;10.00;6.68;;;2.70;99.90;;;;;;509283;233;27381;-66
2022/12/06 08:49:59;;;;;;;6.68;5.45;;;2.70;99.90;;;;;;509247;233;27333;-65
2022/12/06 08:52:00;;;;;;;8.00;5.95;;;2.80;99.90;;;;;;509263;233;27439;-65
2022/12/06 08:54:01;;;;;;;6.37;5.20;;;2.80;99.90;;;;;;509208;233;29049;-64
2022/12/06 08:56:03;;;;;;;7.72;6.47;;;2.80;99.90;;;;;;509254;233;27856;-65
2022/12/06 08:58:04;;;;;;;8.23;6.05;;;2.70;99.90;;;;;;509287;233;28003;-67
2022/12/06 09:00:05;;;;;;;7.70;6.28;;;2.80;99.90;;;;;;509272;233;27797;-65
2022/12/06 09:02:06;;;;;;;6.65;5.68;;;2.80;99.90;;;;;;509238;233;27375;-65
2022/12/06 09:04:08;;;;;;;6.30;5.70;;;2.80;99.90;;;;;;509247;233;27345;-64
2022/12/06 09:06:09;;;;;;;8.10;6.00;;;2.90;99.90;;;;;;509280;233;27388;-65
2022/12/06 09:08:10;;;;;;;7.45;5.85;;;2.90;99.90;;;;;;509273;233;27368;-68
2022/12/06 09:10:11;;;;;;;8.27;6.25;;;2.90;99.90;;;;;;509278;233;27341;-65
2022/12/06 09:12:13;;;;;;;6.60;6.00;;;2.90;99.90;;;;;;509273;233;27385;-65
2022/12/06 09:14:14;;;;;;;8.30;5.93;;;3.00;99.90;;;;;;509236;233;27344;-64
2022/12/06 09:16:15;;;;;;;6.87;5.85;;;3.00;99.90;;;;;;509248;233;27451;-64
2022/12/06 09:18:16;;;;;;;6.78;5.62;;;3.00;99.90;;;;;;509273;233;27396;-66
2022/12/06 09:20:18;;;;;;;7.65;6.28;;;3.00;99.90;;;;;;509285;233;27349;-67
2022/12/06 09:22:19;;;;;;;8.02;6.30;;;3.00;99.90;;;;;;509288;233;27851;-66
2022/12/06 09:24:20;;;;;;;6.60;5.75;;;3.00;99.90;;;;;;509296;233;27785;-65
2022/12/06 09:26:21;;;;;;;7.20;5.85;;;3.00;99.90;;;;;;509273;233;29007;-65
2022/12/06 09:28:23;;;;;;;7.10;6.22;;;3.10;99.90;;;;;;509292;233;29007;-68
2022/12/06 09:30:24;;;;;;;8.40;6.05;;;3.10;99.90;;;;;;509267;233;27416;-65
2022/12/06 09:32:25;;;;;;;6.75;5.90;;;3.10;99.90;;;;;;509257;233;27469;-66
2022/12/06 09:34:26;;;;;;;8.20;6.68;;;3.20;99.90;;;;;;509270;233;27357;-65
2022/12/06 09:36:28;;;;;;;7.07;6.37;;;3.20;99.90;;;;;;509244;233;27420;-65
2022/12/06 09:38:29;;;;;;;6.90;6.15;;;3.20;99.90;;;;;;509296;233;27443;-67
2022/12/06 09:40:30;;;;;;;6.60;5.65;;;3.20;99.90;;;;;;509279;233;27338;-66
2022/12/06 09:42:31;;;;;;;6.65;5.47;;;3.20;99.90;;;;;;509246;233;27353;-66
2022/12/06 09:44:33;;;;;;;7.25;5.10;;;3.30;99.90;;;;;;509237;233;27345;-64
2022/12/06 09:46:34;;;;;;;6.32;5.62;;;3.30;99.90;;;;;;509241;233;27325;-65
2022/12/06 09:48:35;;;;;;;6.05;5.25;;;3.30;99.90;;;;;;509263;233;27451;-66
2022/12/06 09:50:36;;;;;;;6.50;5.35;;;3.30;99.90;;;;;;509274;233;28295;-64
2022/12/06 09:52:38;;;;;;;7.57;5.55;;;3.30;99.90;;;;;;509260;233;27837;-64
2022/12/06 09:54:39;;;;;;;5.95;5.37;;;3.30;99.90;;;;;;509230;233;27815;-64
2022/12/06 09:56:40;;;;;;;6.55;5.28;;;3.40;99.90;;;;;;509267;233;28875;-65
2022/12/06 09:58:41;;;;;;;6.15;5.30;;;3.40;99.90;;;;;;509239;233;27388;-65
2022/12/06 10:00:43;;;;;;;6.20;4.82;;;3.30;99.90;;;;;;509252;233;27326;-64
2022/12/06 10:02:44;;;;;;;6.87;5.47;;;3.30;99.90;;;;;;509222;233;27465;-64
2022/12/06 10:04:45;;;;;;;6.57;5.05;;;3.30;99.90;;;;;;509231;233;27424;-64
2022/12/06 10:06:46;;;;;;;5.30;4.80;;;3.40;99.90;;;;;;509250;233;27710;-65
2022/12/06 10:08:48;;;;;;;6.62;5.40;;;3.40;99.90;;;;;;509273;233;27463;-67
2022/12/06 10:10:49;;;;;;;6.97;5.72;;;3.40;99.90;;;;;;509229;233;27341;-64
2022/12/06 10:12:50;;;;;;;6.35;5.15;;;3.40;99.90;;;;;;509197;233;27435;-65
2022/12/06 10:14:51;;;;;;;6.45;4.87;;;3.40;99.90;;;;;;509259;233;27753;-64
2022/12/06 10:16:53;;;;;;;6.57;5.47;;;3.40;99.90;;;;;;509279;233;27325;-64
2022/12/06 10:18:54;;;;;;;5.50;4.72;;;3.40;99.90;;;;;;509263;233;27837;-67
2022/12/06 10:20:55;;;;;;;5.97;4.50;;;3.40;99.90;;;;;;509241;233;27880;-64
2022/12/06 10:22:56;;;;;;;5.37;4.85;;;3.40;99.90;;;;;;509246;233;28240;-64
2022/12/06 10:24:58;;;;;;;5.15;4.65;;;3.40;99.90;;;;;;509265;233;28970;-64
2022/12/06 10:26:59;;;;;;;5.25;4.75;;;3.40;99.90;;;;;;509256;233;27437;-65
2022/12/06 10:29:00;;;;;;;7.87;5.25;;;3.50;99.90;;;;;;509279;233;27479;-65
2022/12/06 10:31:03;;;;;;;5.68;5.03;;;3.50;99.90;;;;;;509246;233;27336;-64
2022/12/06 10:33:05;;;;;;;6.00;4.95;;;3.50;99.90;;;;;;509230;233;27341;-66
2022/12/06 10:35:04;;;;;;;5.30;4.80;;;3.60;99.90;;;;;;509123;233;27451;-64
2022/12/06 10:37:05;;;;;;;4.60;4.10;;;3.50;99.90;;;;;;509245;233;27534;-64
2022/12/06 10:39:07;;;;;;;5.22;4.62;;;3.60;99.90;;;;;;509268;233;27467;-65
2022/12/06 10:41:08;;;;;;;5.12;4.60;;;3.60;99.90;;;;;;509257;233;27396;-64
2022/12/06 10:43:09;;;;;;;4.90;4.40;;;3.50;99.90;;;;;;509221;233;27365;-64
2022/12/06 10:47:02;;;;;;;4.80;4.30;;;3.50;99.90;;;;;;509258;233;27390;-67
2022/12/06 10:47:12;;;;;;;5.12;4.62;;;3.50;99.90;;;;;;506796;233;27786;-65
2022/12/06 10:49:13;;;;;;;4.60;4.20;;;3.50;99.90;;;;;;509262;233;27834;-66
2022/12/06 10:51:14;;;;;;;5.68;4.62;;;3.50;99.90;;;;;;509254;233;27867;-64
2022/12/06 10:53:15;;;;;;;4.10;3.80;;;3.50;99.90;;;;;;509242;233;27428;-64
2022/12/06 10:55:17;;;;;;;5.68;4.68;;;3.50;99.90;;;;;;509257;233;27424;-68
2022/12/06 10:57:18;;;;;;;5.65;5.15;;;3.50;99.90;;;;;;509261;233;27322;-65
2022/12/06 10:59:19;;;;;;;4.97;4.55;;;3.50;99.90;;;;;;509254;233;27368;-65